Airport View

Enter AWOS ICAO identifier for current METAR.

ex. KFNL

KOXV 191325Z AUTO 27007KT 10SM BKN015 BKN070 15/15 A2959 RMK AO2

19 May 2019 13:26

Frequency: 119.775

Phone: 641-828-8406

Other Area AWOS: KPEA - KCNC - KTNU - KOOA

TAF AMD KDSM 191245Z 1913/2012 28006KT P6SM FEW016 BKN045 OVC060 FM191500 30013G18KT P6SM VCSH OVC015 FM192000 29018G29KT P6SM OVC015 FM200000 30012G20KT P6SM BKN025 FM200700 33011KT P6SM SCT030 FM201100 34010KT P6SM SCT080